sensor_id;sensor_type;location;lat;lon;timestamp;temperature;humidity
3310;DHT22;1667;53.238;10.394;2023-05-16T00:02:06;15.80;83.30
3310;DHT22;1667;53.238;10.394;2023-05-16T00:07:05;15.80;83.60
3310;DHT22;1667;53.238;10.394;2023-05-16T00:12:04;15.70;83.80
3310;DHT22;1667;53.238;10.394;2023-05-16T00:17:04;15.70;83.60
3310;DHT22;1667;53.238;10.394;2023-05-16T00:22:08;15.80;83.80
3310;DHT22;1667;53.238;10.394;2023-05-16T00:27:07;15.70;83.80
3310;DHT22;1667;53.238;10.394;2023-05-16T00:32:07;15.70;84.10
3310;DHT22;1667;53.238;10.394;2023-05-16T00:37:06;15.70;84.10
3310;DHT22;1667;53.238;10.394;2023-05-16T00:42:06;15.70;84.20
3310;DHT22;1667;53.238;10.394;2023-05-16T00:47:06;15.70;84.20
3310;DHT22;1667;53.238;10.394;2023-05-16T00:52:05;15.80;84.30
3310;DHT22;1667;53.238;10.394;2023-05-16T00:57:04;15.70;84.50
3310;DHT22;1667;53.238;10.394;2023-05-16T01:02:06;15.80;84.20
3310;DHT22;1667;53.238;10.394;2023-05-16T01:07:05;15.70;84.40
3310;DHT22;1667;53.238;10.394;2023-05-16T01:12:10;15.70;84.40
3310;DHT22;1667;53.238;10.394;2023-05-16T01:17:19;15.70;84.50
3310;DHT22;1667;53.238;10.394;2023-05-16T01:22:28;15.70;85.00
3310;DHT22;1667;53.238;10.394;2023-05-16T01:27:30;15.70;84.70
3310;DHT22;1667;53.238;10.394;2023-05-16T01:32:30;15.70;84.70
3310;DHT22;1667;53.238;10.394;2023-05-16T01:37:32;15.70;84.80
3310;DHT22;1667;53.238;10.394;2023-05-16T01:42:41;15.70;85.20
3310;DHT22;1667;53.238;10.394;2023-05-16T01:47:44;15.60;85.30
3310;DHT22;1667;53.238;10.394;2023-05-16T01:52:48;15.70;85.20
3310;DHT22;1667;53.238;10.394;2023-05-16T01:57:49;15.70;85.00
3310;DHT22;1667;53.238;10.394;2023-05-16T02:02:48;15.70;85.40
3310;DHT22;1667;53.238;10.394;2023-05-16T02:07:47;15.70;85.50
3310;DHT22;1667;53.238;10.394;2023-05-16T02:12:46;15.70;85.40
3310;DHT22;1667;53.238;10.394;2023-05-16T02:17:46;15.70;85.20
3310;DHT22;1667;53.238;10.394;2023-05-16T02:22:45;15.70;85.50
3310;DHT22;1667;53.238;10.394;2023-05-16T02:27:46;15.70;85.50
3310;DHT22;1667;53.238;10.394;2023-05-16T02:32:46;15.60;85.80
3310;DHT22;1667;53.238;10.394;2023-05-16T02:37:46;15.60;86.30
3310;DHT22;1667;53.238;10.394;2023-05-16T02:42:44;15.60;86.20
3310;DHT22;1667;53.238;10.394;2023-05-16T02:47:44;15.50;86.60
3310;DHT22;1667;53.238;10.394;2023-05-16T02:52:44;15.50;87.20
3310;DHT22;1667;53.238;10.394;2023-05-16T02:57:43;15.50;87.50
3310;DHT22;1667;53.238;10.394;2023-05-16T03:02:41;15.40;87.30
3310;DHT22;1667;53.238;10.394;2023-05-16T03:07:41;15.30;87.40
3310;DHT22;1667;53.238;10.394;2023-05-16T03:12:41;15.30;87.50
3310;DHT22;1667;53.238;10.394;2023-05-16T03:17:39;15.30;87.80
3310;DHT22;1667;53.238;10.394;2023-05-16T03:22:38;15.20;87.30
3310;DHT22;1667;53.238;10.394;2023-05-16T03:27:36;15.20;87.50
3310;DHT22;1667;53.238;10.394;2023-05-16T03:32:36;15.20;87.20
3310;DHT22;1667;53.238;10.394;2023-05-16T03:37:35;15.20;87.30
3310;DHT22;1667;53.238;10.394;2023-05-16T03:42:33;15.20;86.80
3310;DHT22;1667;53.238;10.394;2023-05-16T03:47:32;15.20;86.90
3310;DHT22;1667;53.238;10.394;2023-05-16T03:52:32;15.20;86.60
3310;DHT22;1667;53.238;10.394;2023-05-16T03:57:32;15.20;86.20
3310;DHT22;1667;53.238;10.394;2023-05-16T04:02:30;15.10;85.70
3310;DHT22;1667;53.238;10.394;2023-05-16T04:07:29;15.10;85.60
3310;DHT22;1667;53.238;10.394;2023-05-16T04:12:29;15.10;85.60
3310;DHT22;1667;53.238;10.394;2023-05-16T04:17:28;15.10;85.20
3310;DHT22;1667;53.238;10.394;2023-05-16T04:22:26;15.10;85.20
3310;DHT22;1667;53.238;10.394;2023-05-16T04:27:25;15.10;85.50
3310;DHT22;1667;53.238;10.394;2023-05-16T04:32:25;15.10;85.20
3310;DHT22;1667;53.238;10.394;2023-05-16T04:37:24;15.00;84.10
3310;DHT22;1667;53.238;10.394;2023-05-16T04:42:23;15.00;84.90
3310;DHT22;1667;53.238;10.394;2023-05-16T04:47:22;15.00;84.90
3310;DHT22;1667;53.238;10.394;2023-05-16T04:52:22;15.00;85.10
3310;DHT22;1667;53.238;10.394;2023-05-16T04:57:21;14.90;85.30
3310;DHT22;1667;53.238;10.394;2023-05-16T05:02:19;14.90;85.20
3310;DHT22;1667;53.238;10.394;2023-05-16T05:07:17;14.90;85.10
3310;DHT22;1667;53.238;10.394;2023-05-16T05:12:17;14.90;84.40
3310;DHT22;1667;53.238;10.394;2023-05-16T05:17:16;14.90;85.50
3310;DHT22;1667;53.238;10.394;2023-05-16T05:22:15;14.80;84.00
3310;DHT22;1667;53.238;10.394;2023-05-16T05:27:13;14.70;84.20
3310;DHT22;1667;53.238;10.394;2023-05-16T05:32:13;14.70;83.90
3310;DHT22;1667;53.238;10.394;2023-05-16T05:37:12;14.60;84.20
3310;DHT22;1667;53.238;10.394;2023-05-16T05:42:11;14.70;83.90
3310;DHT22;1667;53.238;10.394;2023-05-16T05:47:10;14.70;83.70
3310;DHT22;1667;53.238;10.394;2023-05-16T05:52:10;14.70;83.40
3310;DHT22;1667;53.238;10.394;2023-05-16T05:57:09;14.70;83.30
3310;DHT22;1667;53.238;10.394;2023-05-16T06:02:07;14.70;82.60
3310;DHT22;1667;53.238;10.394;2023-05-16T06:07:06;14.80;82.80
3310;DHT22;1667;53.238;10.394;2023-05-16T06:12:06;14.80;81.70
3310;DHT22;1667;53.238;10.394;2023-05-16T06:17:05;14.80;81.50
3310;DHT22;1667;53.238;10.394;2023-05-16T06:22:04;14.80;81.30
3310;DHT22;1667;53.238;10.394;2023-05-16T06:27:03;14.80;81.20
3310;DHT22;1667;53.238;10.394;2023-05-16T06:32:03;14.80;81.00
3310;DHT22;1667;53.238;10.394;2023-05-16T06:37:01;14.90;80.80
3310;DHT22;1667;53.238;10.394;2023-05-16T06:42:00;15.00;81.00
3310;DHT22;1667;53.238;10.394;2023-05-16T06:47:02;15.10;80.40
3310;DHT22;1667;53.238;10.394;2023-05-16T06:52:01;15.20;81.20
3310;DHT22;1667;53.238;10.394;2023-05-16T06:57:00;15.30;80.20
3310;DHT22;1667;53.238;10.394;2023-05-16T07:01:59;15.20;79.10
3310;DHT22;1667;53.238;10.394;2023-05-16T07:06:59;15.30;78.80
3310;DHT22;1667;53.238;10.394;2023-05-16T07:11:57;15.40;78.80
3310;DHT22;1667;53.238;10.394;2023-05-16T07:16:56;15.50;78.60
3310;DHT22;1667;53.238;10.394;2023-05-16T07:21:54;15.50;79.00
3310;DHT22;1667;53.238;10.394;2023-05-16T07:26:55;15.50;78.60
3310;DHT22;1667;53.238;10.394;2023-05-16T07:31:53;15.50;78.40
3310;DHT22;1667;53.238;10.394;2023-05-16T07:36:52;15.50;78.00
3310;DHT22;1667;53.238;10.394;2023-05-16T07:41:51;15.60;78.50
3310;DHT22;1667;53.238;10.394;2023-05-16T07:46:50;15.70;77.70
3310;DHT22;1667;53.238;10.394;2023-05-16T07:51:49;15.80;78.10
3310;DHT22;1667;53.238;10.394;2023-05-16T07:56:47;15.90;77.50
3310;DHT22;1667;53.238;10.394;2023-05-16T08:01:46;15.90;76.80
3310;DHT22;1667;53.238;10.394;2023-05-16T08:06:45;15.90;75.10
3310;DHT22;1667;53.238;10.394;2023-05-16T08:11:44;15.90;75.10
3310;DHT22;1667;53.238;10.394;2023-05-16T08:16:43;15.90;74.30
3310;DHT22;1667;53.238;10.394;2023-05-16T08:21:41;16.10;74.30
3310;DHT22;1667;53.238;10.394;2023-05-16T08:26:41;16.10;72.40
3310;DHT22;1667;53.238;10.394;2023-05-16T08:31:39;16.20;74.00
3310;DHT22;1667;53.238;10.394;2023-05-16T08:36:37;16.30;74.20
3310;DHT22;1667;53.238;10.394;2023-05-16T08:41:36;16.40;73.80
3310;DHT22;1667;53.238;10.394;2023-05-16T08:46:36;16.60;73.70
3310;DHT22;1667;53.238;10.394;2023-05-16T08:51:36;16.70;71.50
3310;DHT22;1667;53.238;10.394;2023-05-16T08:56:36;16.70;71.50
3310;DHT22;1667;53.238;10.394;2023-05-16T09:01:36;16.70;69.50
3310;DHT22;1667;53.238;10.394;2023-05-16T09:06:35;16.70;69.80
3310;DHT22;1667;53.238;10.394;2023-05-16T09:11:33;17.00;69.70
3310;DHT22;1667;53.238;10.394;2023-05-16T09:16:33;17.10;70.10
3310;DHT22;1667;53.238;10.394;2023-05-16T09:21:34;17.20;70.30
3310;DHT22;1667;53.238;10.394;2023-05-16T09:26:33;17.30;69.20
3310;DHT22;1667;53.238;10.394;2023-05-16T09:31:32;17.30;69.60
3310;DHT22;1667;53.238;10.394;2023-05-16T09:36:36;17.30;69.30
3310;DHT22;1667;53.238;10.394;2023-05-16T09:41:36;17.30;66.70
3310;DHT22;1667;53.238;10.394;2023-05-16T09:46:35;17.40;68.20
3310;DHT22;1667;53.238;10.394;2023-05-16T09:51:36;17.50;67.50
3310;DHT22;1667;53.238;10.394;2023-05-16T09:56:47;17.60;67.60
3310;DHT22;1667;53.238;10.394;2023-05-16T10:01:46;17.70;67.50
3310;DHT22;1667;53.238;10.394;2023-05-16T10:06:50;18.00;67.50
3310;DHT22;1667;53.238;10.394;2023-05-16T10:11:51;18.20;66.50
3310;DHT22;1667;53.238;10.394;2023-05-16T10:16:51;18.30;66.40
3310;DHT22;1667;53.238;10.394;2023-05-16T10:21:55;18.60;65.80
3310;DHT22;1667;53.238;10.394;2023-05-16T10:26:55;18.60;65.70
3310;DHT22;1667;53.238;10.394;2023-05-16T10:31:55;18.80;65.50
3310;DHT22;1667;53.238;10.394;2023-05-16T10:36:55;18.90;66.30
3310;DHT22;1667;53.238;10.394;2023-05-16T10:41:54;18.90;66.40
3310;DHT22;1667;53.238;10.394;2023-05-16T10:46:53;18.80;64.40
3310;DHT22;1667;53.238;10.394;2023-05-16T10:52:04;18.60;64.30
3310;DHT22;1667;53.238;10.394;2023-05-16T10:57:04;18.70;63.80
3310;DHT22;1667;53.238;10.394;2023-05-16T11:02:03;18.80;61.40
3310;DHT22;1667;53.238;10.394;2023-05-16T11:07:20;19.00;61.90
3310;DHT22;1667;53.238;10.394;2023-05-16T11:12:19;19.20;61.80
3310;DHT22;1667;53.238;10.394;2023-05-16T11:17:20;19.50;62.90
3310;DHT22;1667;53.238;10.394;2023-05-16T11:22:25;19.70;63.20
3310;DHT22;1667;53.238;10.394;2023-05-16T11:27:25;19.70;64.70
3310;DHT22;1667;53.238;10.394;2023-05-16T11:32:24;19.60;64.40
3310;DHT22;1667;53.238;10.394;2023-05-16T11:37:24;19.70;63.60
3310;DHT22;1667;53.238;10.394;2023-05-16T11:42:23;19.60;63.70
3310;DHT22;1667;53.238;10.394;2023-05-16T11:47:22;19.50;63.30
3310;DHT22;1667;53.238;10.394;2023-05-16T11:52:21;19.50;63.30
3310;DHT22;1667;53.238;10.394;2023-05-16T11:57:22;19.40;63.00
3310;DHT22;1667;53.238;10.394;2023-05-16T12:02:21;19.40;62.30
3310;DHT22;1667;53.238;10.394;2023-05-16T12:07:19;19.40;62.60
3310;DHT22;1667;53.238;10.394;2023-05-16T12:12:19;19.30;64.30
3310;DHT22;1667;53.238;10.394;2023-05-16T12:17:19;19.30;63.50
3310;DHT22;1667;53.238;10.394;2023-05-16T12:22:18;19.20;65.00
3310;DHT22;1667;53.238;10.394;2023-05-16T12:27:21;19.40;64.90
3310;DHT22;1667;53.238;10.394;2023-05-16T12:32:21;19.50;62.50
3310;DHT22;1667;53.238;10.394;2023-05-16T12:37:21;19.60;62.30
3310;DHT22;1667;53.238;10.394;2023-05-16T12:42:20;19.80;62.60
3310;DHT22;1667;53.238;10.394;2023-05-16T12:47:18;20.00;62.20
3310;DHT22;1667;53.238;10.394;2023-05-16T12:52:19;19.90;60.80
3310;DHT22;1667;53.238;10.394;2023-05-16T12:57:18;19.70;62.40
3310;DHT22;1667;53.238;10.394;2023-05-16T13:02:17;19.60;64.40
3310;DHT22;1667;53.238;10.394;2023-05-16T13:07:16;19.50;64.10
3310;DHT22;1667;53.238;10.394;2023-05-16T13:12:16;19.30;64.40
3310;DHT22;1667;53.238;10.394;2023-05-16T13:17:14;19.10;63.70
3310;DHT22;1667;53.238;10.394;2023-05-16T13:22:13;18.90;63.50
3310;DHT22;1667;53.238;10.394;2023-05-16T13:27:16;18.80;62.10
3310;DHT22;1667;53.238;10.394;2023-05-16T13:32:15;18.80;60.90
3310;DHT22;1667;53.238;10.394;2023-05-16T13:37:13;18.90;61.50
3310;DHT22;1667;53.238;10.394;2023-05-16T13:42:12;19.10;61.00
3310;DHT22;1667;53.238;10.394;2023-05-16T13:47:12;19.10;60.50
3310;DHT22;1667;53.238;10.394;2023-05-16T13:52:10;19.20;60.90
3310;DHT22;1667;53.238;10.394;2023-05-16T13:57:11;19.20;61.10
3310;DHT22;1667;53.238;10.394;2023-05-16T14:02:12;19.40;61.70
3310;DHT22;1667;53.238;10.394;2023-05-16T14:07:11;19.50;61.90
3310;DHT22;1667;53.238;10.394;2023-05-16T14:12:09;19.60;62.50
3310;DHT22;1667;53.238;10.394;2023-05-16T14:17:08;19.80;61.50
3310;DHT22;1667;53.238;10.394;2023-05-16T14:22:08;19.90;61.40
3310;DHT22;1667;53.238;10.394;2023-05-16T14:27:07;19.80;63.30
3310;DHT22;1667;53.238;10.394;2023-05-16T14:32:05;19.70;64.20
3310;DHT22;1667;53.238;10.394;2023-05-16T14:37:04;19.70;62.80
3310;DHT22;1667;53.238;10.394;2023-05-16T14:42:05;19.60;62.80
3310;DHT22;1667;53.238;10.394;2023-05-16T14:47:05;19.40;61.60
3310;DHT22;1667;53.238;10.394;2023-05-16T14:52:04;19.10;61.50
3310;DHT22;1667;53.238;10.394;2023-05-16T14:57:04;18.80;62.90
3310;DHT22;1667;53.238;10.394;2023-05-16T15:02:03;18.80;63.40
3310;DHT22;1667;53.238;10.394;2023-05-16T15:07:03;18.90;62.60
3310;DHT22;1667;53.238;10.394;2023-05-16T15:12:01;18.80;62.20
3310;DHT22;1667;53.238;10.394;2023-05-16T15:17:02;18.70;60.80
3310;DHT22;1667;53.238;10.394;2023-05-16T15:22:04;18.70;60.30
3310;DHT22;1667;53.238;10.394;2023-05-16T15:27:04;18.80;60.70
3310;DHT22;1667;53.238;10.394;2023-05-16T15:32:04;18.80;60.60
3310;DHT22;1667;53.238;10.394;2023-05-16T15:37:04;18.80;61.30
3310;DHT22;1667;53.238;10.394;2023-05-16T15:42:03;18.80;61.50
3310;DHT22;1667;53.238;10.394;2023-05-16T15:47:06;18.90;60.70
3310;DHT22;1667;53.238;10.394;2023-05-16T15:52:05;19.10;62.30
3310;DHT22;1667;53.238;10.394;2023-05-16T15:57:04;19.20;62.10
3310;DHT22;1667;53.238;10.394;2023-05-16T16:02:03;19.30;62.30
3310;DHT22;1667;53.238;10.394;2023-05-16T16:07:04;19.40;61.00
3310;DHT22;1667;53.238;10.394;2023-05-16T16:12:03;19.40;61.10
3310;DHT22;1667;53.238;10.394;2023-05-16T16:17:02;19.30;60.10
3310;DHT22;1667;53.238;10.394;2023-05-16T16:22:05;19.20;59.90
3310;DHT22;1667;53.238;10.394;2023-05-16T16:27:03;19.10;60.10
3310;DHT22;1667;53.238;10.394;2023-05-16T16:32:01;19.00;60.50
3310;DHT22;1667;53.238;10.394;2023-05-16T16:37:00;18.80;60.10
3310;DHT22;1667;53.238;10.394;2023-05-16T16:42:00;18.70;60.50
3310;DHT22;1667;53.238;10.394;2023-05-16T16:46:58;18.60;61.10
3310;DHT22;1667;53.238;10.394;2023-05-16T16:51:57;18.40;61.60
3310;DHT22;1667;53.238;10.394;2023-05-16T16:56:56;18.20;60.80
3310;DHT22;1667;53.238;10.394;2023-05-16T17:01:55;18.10;62.10
3310;DHT22;1667;53.238;10.394;2023-05-16T17:06:54;18.00;61.70
3310;DHT22;1667;53.238;10.394;2023-05-16T17:11:53;17.90;61.30
3310;DHT22;1667;53.238;10.394;2023-05-16T17:16:52;17.70;61.70
3310;DHT22;1667;53.238;10.394;2023-05-16T17:21:52;17.60;62.30
3310;DHT22;1667;53.238;10.394;2023-05-16T17:26:51;17.50;63.00
3310;DHT22;1667;53.238;10.394;2023-05-16T17:31:49;17.40;62.90
3310;DHT22;1667;53.238;10.394;2023-05-16T17:42:38;17.30;64.50
3310;DHT22;1667;53.238;10.394;2023-05-16T17:47:37;17.40;64.70
3310;DHT22;1667;53.238;10.394;2023-05-16T17:52:36;17.40;65.30
3310;DHT22;1667;53.238;10.394;2023-05-16T17:57:36;17.40;64.90
3310;DHT22;1667;53.238;10.394;2023-05-16T18:02:36;17.40;65.70
3310;DHT22;1667;53.238;10.394;2023-05-16T18:07:35;17.40;65.70
3310;DHT22;1667;53.238;10.394;2023-05-16T18:12:34;17.40;65.40
3310;DHT22;1667;53.238;10.394;2023-05-16T18:17:36;17.30;65.60
3310;DHT22;1667;53.238;10.394;2023-05-16T18:22:35;17.20;65.80
3310;DHT22;1667;53.238;10.394;2023-05-16T18:27:33;17.20;66.40
3310;DHT22;1667;53.238;10.394;2023-05-16T18:32:32;17.20;67.50
3310;DHT22;1667;53.238;10.394;2023-05-16T18:37:34;17.10;67.40
3310;DHT22;1667;53.238;10.394;2023-05-16T18:42:32;17.10;67.20
3310;DHT22;1667;53.238;10.394;2023-05-16T18:47:31;17.10;68.10
3310;DHT22;1667;53.238;10.394;2023-05-16T18:52:30;17.00;68.40
3310;DHT22;1667;53.238;10.394;2023-05-16T18:57:32;16.90;68.20
3310;DHT22;1667;53.238;10.394;2023-05-16T19:02:31;16.80;69.10
3310;DHT22;1667;53.238;10.394;2023-05-16T19:07:39;16.70;69.70
3310;DHT22;1667;53.238;10.394;2023-05-16T19:12:38;16.70;70.10
3310;DHT22;1667;53.238;10.394;2023-05-16T19:17:37;16.60;70.30
3310;DHT22;1667;53.238;10.394;2023-05-16T19:22:38;16.50;70.20
3310;DHT22;1667;53.238;10.394;2023-05-16T19:27:36;16.40;70.40
3310;DHT22;1667;53.238;10.394;2023-05-16T19:32:36;16.30;70.80
3310;DHT22;1667;53.238;10.394;2023-05-16T19:37:35;16.20;71.40
3310;DHT22;1667;53.238;10.394;2023-05-16T19:42:33;16.10;71.80
3310;DHT22;1667;53.238;10.394;2023-05-16T19:47:32;16.10;72.10
3310;DHT22;1667;53.238;10.394;2023-05-16T19:52:33;16.10;73.00
3310;DHT22;1667;53.238;10.394;2023-05-16T19:57:33;16.00;73.30
3310;DHT22;1667;53.238;10.394;2023-05-16T20:02:31;15.90;73.30
3310;DHT22;1667;53.238;10.394;2023-05-16T20:07:30;15.80;73.50
3310;DHT22;1667;53.238;10.394;2023-05-16T20:12:30;15.80;74.30
3310;DHT22;1667;53.238;10.394;2023-05-16T20:17:29;15.80;75.00
3310;DHT22;1667;53.238;10.394;2023-05-16T20:22:27;15.70;75.10
3310;DHT22;1667;53.238;10.394;2023-05-16T20:27:29;15.70;75.40
3310;DHT22;1667;53.238;10.394;2023-05-16T20:32:28;15.70;74.90
3310;DHT22;1667;53.238;10.394;2023-05-16T20:37:26;15.50;74.20
3310;DHT22;1667;53.238;10.394;2023-05-16T20:42:25;15.50;74.80
3310;DHT22;1667;53.238;10.394;2023-05-16T20:47:25;15.40;74.90
3310;DHT22;1667;53.238;10.394;2023-05-16T20:52:24;15.30;74.90
3310;DHT22;1667;53.238;10.394;2023-05-16T20:57:23;15.20;75.50
3310;DHT22;1667;53.238;10.394;2023-05-16T21:02:22;15.20;75.70
3310;DHT22;1667;53.238;10.394;2023-05-16T21:07:22;15.10;76.20
3310;DHT22;1667;53.238;10.394;2023-05-16T21:12:20;15.00;76.00
3310;DHT22;1667;53.238;10.394;2023-05-16T21:17:19;14.90;76.60
3310;DHT22;1667;53.238;10.394;2023-05-16T21:22:17;14.80;76.70
3310;DHT22;1667;53.238;10.394;2023-05-16T21:27:17;14.80;77.10
3310;DHT22;1667;53.238;10.394;2023-05-16T21:32:15;14.70;78.30
3310;DHT22;1667;53.238;10.394;2023-05-16T21:37:14;14.70;78.50
3310;DHT22;1667;53.238;10.394;2023-05-16T21:42:13;14.70;79.30
3310;DHT22;1667;53.238;10.394;2023-05-16T21:47:12;14.70;79.10
3310;DHT22;1667;53.238;10.394;2023-05-16T21:52:11;14.80;79.50
3310;DHT22;1667;53.238;10.394;2023-05-16T21:57:09;14.70;79.20
3310;DHT22;1667;53.238;10.394;2023-05-16T22:02:08;14.70;79.40
3310;DHT22;1667;53.238;10.394;2023-05-16T22:07:08;14.70;79.40
3310;DHT22;1667;53.238;10.394;2023-05-16T22:12:07;14.70;79.60
3310;DHT22;1667;53.238;10.394;2023-05-16T22:17:06;14.60;79.80
3310;DHT22;1667;53.238;10.394;2023-05-16T22:22:04;14.60;79.90
3310;DHT22;1667;53.238;10.394;2023-05-16T22:27:05;14.50;80.00
3310;DHT22;1667;53.238;10.394;2023-05-16T22:32:05;14.40;80.40
3310;DHT22;1667;53.238;10.394;2023-05-16T22:37:04;14.30;80.60
3310;DHT22;1667;53.238;10.394;2023-05-16T22:42:04;14.30;81.30
3310;DHT22;1667;53.238;10.394;2023-05-16T22:47:03;14.20;81.60
3310;DHT22;1667;53.238;10.394;2023-05-16T22:52:02;14.20;81.70
3310;DHT22;1667;53.238;10.394;2023-05-16T22:57:00;14.20;82.80
3310;DHT22;1667;53.238;10.394;2023-05-16T23:02:00;14.10;82.60
3310;DHT22;1667;53.238;10.394;2023-05-16T23:06:59;14.10;82.50
3310;DHT22;1667;53.238;10.394;2023-05-16T23:11:57;14.10;82.60
3310;DHT22;1667;53.238;10.394;2023-05-16T23:16:56;14.10;82.50
3310;DHT22;1667;53.238;10.394;2023-05-16T23:21:56;14.10;82.40
3310;DHT22;1667;53.238;10.394;2023-05-16T23:26:54;14.10;82.20
3310;DHT22;1667;53.238;10.394;2023-05-16T23:31:52;14.10;82.60
3310;DHT22;1667;53.238;10.394;2023-05-16T23:36:51;14.10;82.40
3310;DHT22;1667;53.238;10.394;2023-05-16T23:41:51;14.00;82.70
3310;DHT22;1667;53.238;10.394;2023-05-16T23:46:49;14.00;83.10
3310;DHT22;1667;53.238;10.394;2023-05-16T23:51:48;14.00;82.90
3310;DHT22;1667;53.238;10.394;2023-05-16T23:56:51;13.90;83.40
